Time;durP1;ratioP1;P1;durP2;ratioP2;P2;SDS_P1;SDS_P2;PMS_P1;PMS_P2;Temp;Humidity;BMP_temperature;BMP_pressure;BME280_temperature;BME280_humidity;BME280_pressure;Samples;Min_cycle;Max_cycle;Signal;HPM_P1;HPM_P2
2022/08/16 00:01:00;;;;;;;1.20;1.20;;;;;;;;;;5027677;28;20594;-54
2022/08/16 00:03:26;;;;;;;1.07;1.07;;;;;;;;;;5019126;28;20354;-54
2022/08/16 00:05:52;;;;;;;1.00;1.00;;;;;;;;;;5032256;28;20227;-54
2022/08/16 00:08:18;;;;;;;1.10;1.10;;;;;;;;;;5029550;28;20234;-54
2022/08/16 00:10:44;;;;;;;0.90;0.90;;;;;;;;;;5034455;28;20307;-54
2022/08/16 00:13:10;;;;;;;0.90;0.90;;;;;;;;;;5007950;28;20788;-54
2022/08/16 00:15:45;;;;;;;1.20;1.20;;;;;;;;;;5023701;28;20247;-54
2022/08/16 00:18:11;;;;;;;1.30;1.30;;;;;;;;;;5028482;28;20215;-54
2022/08/16 00:20:40;;;;;;;1.77;1.70;;;;;;;;;;5033242;28;20482;-54
2022/08/16 00:23:06;;;;;;;1.63;1.63;;;;;;;;;;5038639;28;20576;-53
2022/08/16 00:25:32;;;;;;;1.50;1.50;;;;;;;;;;5027618;28;20809;-53
2022/08/16 00:27:58;;;;;;;1.80;1.70;;;;;;;;;;5025562;28;20217;-54
2022/08/16 00:30:24;;;;;;;2.30;2.20;;;;;;;;;;5029131;28;20212;-54
2022/08/16 00:32:51;;;;;;;2.27;2.17;;;;;;;;;;5019536;28;20260;-54
2022/08/16 00:35:18;;;;;;;2.00;1.90;;;;;;;;;;5034502;28;20228;-54
2022/08/16 00:37:44;;;;;;;2.00;1.90;;;;;;;;;;5021853;28;20236;-54
2022/08/16 00:40:11;;;;;;;1.97;1.87;;;;;;;;;;5021690;28;20260;-53
2022/08/16 00:42:37;;;;;;;2.13;2.03;;;;;;;;;;5019968;28;20288;-54
2022/08/16 00:45:05;;;;;;;2.10;2.00;;;;;;;;;;5010512;28;20243;-53
2022/08/16 00:47:31;;;;;;;1.90;1.80;;;;;;;;;;5014495;28;20239;-54
2022/08/16 00:49:57;;;;;;;1.90;1.80;;;;;;;;;;5005658;28;20227;-54
2022/08/16 00:52:26;;;;;;;2.10;2.00;;;;;;;;;;5036795;28;20224;-54
2022/08/16 00:54:52;;;;;;;1.90;1.80;;;;;;;;;;5017124;28;20457;-53
2022/08/16 00:57:18;;;;;;;1.53;1.53;;;;;;;;;;5027149;28;20266;-54
2022/08/16 00:59:44;;;;;;;1.80;1.70;;;;;;;;;;5007207;28;20242;-54
2022/08/16 01:02:12;;;;;;;1.90;1.80;;;;;;;;;;5008419;28;20227;-54
2022/08/16 01:04:38;;;;;;;1.80;1.70;;;;;;;;;;5022427;28;21380;-53
2022/08/16 01:07:04;;;;;;;1.60;1.60;;;;;;;;;;5010483;28;20220;-54
2022/08/16 01:09:31;;;;;;;1.77;1.73;;;;;;;;;;4996984;28;20228;-54
2022/08/16 01:11:58;;;;;;;2.13;2.03;;;;;;;;;;5010402;28;20223;-54
2022/08/16 01:14:32;;;;;;;1.97;1.87;;;;;;;;;;5012440;28;20245;-53
2022/08/16 01:16:58;;;;;;;1.80;1.70;;;;;;;;;;5033297;28;20268;-54
2022/08/16 01:19:26;;;;;;;2.30;2.20;;;;;;;;;;5039079;28;20739;-54
2022/08/16 01:21:52;;;;;;;2.30;2.20;;;;;;;;;;5017840;28;20228;-54
2022/08/16 01:24:25;;;;;;;2.00;1.90;;;;;;;;;;5017606;28;20225;-54
2022/08/16 01:26:51;;;;;;;1.80;1.70;;;;;;;;;;5036327;28;20227;-53
2022/08/16 01:29:20;;;;;;;1.60;1.60;;;;;;;;;;5037912;28;21170;-53
2022/08/16 01:31:46;;;;;;;1.80;1.70;;;;;;;;;;5018503;28;21058;-54
2022/08/16 01:34:13;;;;;;;1.90;1.80;;;;;;;;;;5031266;28;20222;-53
2022/08/16 01:36:39;;;;;;;1.60;1.60;;;;;;;;;;5028370;28;21079;-54
2022/08/16 01:39:12;;;;;;;1.80;1.70;;;;;;;;;;5030883;28;20232;-53
2022/08/16 01:41:38;;;;;;;1.50;1.50;;;;;;;;;;5036289;28;20252;-54
2022/08/16 01:44:04;;;;;;;1.50;1.50;;;;;;;;;;5036060;28;20223;-53
2022/08/16 01:46:48;;;;;;;1.73;1.70;;;;;;;;;;5021170;28;20219;-54
2022/08/16 01:49:18;;;;;;;1.70;1.70;;;;;;;;;;5018057;28;20834;-53
2022/08/16 01:51:45;;;;;;;1.50;1.50;;;;;;;;;;5009061;28;20220;-54
2022/08/16 01:54:11;;;;;;;1.70;1.70;;;;;;;;;;5019729;28;20260;-54
2022/08/16 01:56:37;;;;;;;1.53;1.53;;;;;;;;;;5024173;28;20306;-53
2022/08/16 01:59:04;;;;;;;2.00;1.90;;;;;;;;;;5025248;28;20236;-53
2022/08/16 02:01:30;;;;;;;2.00;1.90;;;;;;;;;;5029989;28;20223;-53
2022/08/16 02:03:56;;;;;;;1.87;1.77;;;;;;;;;;5020764;28;20563;-54
2022/08/16 02:06:22;;;;;;;2.10;2.00;;;;;;;;;;5007208;28;20317;-53
2022/08/16 02:08:49;;;;;;;2.20;2.10;;;;;;;;;;5018603;28;20891;-53
2022/08/16 02:11:15;;;;;;;1.80;1.70;;;;;;;;;;5031541;28;20741;-54
2022/08/16 02:13:41;;;;;;;2.00;1.90;;;;;;;;;;5021075;28;20225;-54
2022/08/16 02:16:07;;;;;;;1.57;1.57;;;;;;;;;;5021051;28;20319;-54
2022/08/16 02:18:33;;;;;;;1.90;1.80;;;;;;;;;;5017952;28;20228;-54
2022/08/16 02:20:59;;;;;;;2.03;1.93;;;;;;;;;;5013758;28;20336;-54
2022/08/16 02:23:25;;;;;;;2.10;2.00;;;;;;;;;;5035924;28;20239;-54
2022/08/16 02:25:51;;;;;;;2.07;1.97;;;;;;;;;;5035008;28;20956;-54
2022/08/16 02:28:17;;;;;;;1.90;1.80;;;;;;;;;;5024632;28;20965;-54
2022/08/16 02:30:44;;;;;;;2.00;1.90;;;;;;;;;;5033659;28;20229;-54
2022/08/16 02:33:10;;;;;;;2.20;2.10;;;;;;;;;;5035971;28;20223;-54
2022/08/16 02:35:36;;;;;;;1.90;1.80;;;;;;;;;;5036669;28;20242;-52
2022/08/16 02:38:02;;;;;;;1.90;1.80;;;;;;;;;;5038060;28;20704;-54
2022/08/16 02:40:28;;;;;;;1.80;1.70;;;;;;;;;;5037844;28;20226;-53
2022/08/16 02:42:54;;;;;;;2.00;1.90;;;;;;;;;;5033657;28;20756;-54
2022/08/16 02:45:20;;;;;;;1.93;1.83;;;;;;;;;;5028217;28;20930;-53
2022/08/16 02:47:46;;;;;;;1.87;1.77;;;;;;;;;;5033939;28;20223;-54
2022/08/16 02:50:12;;;;;;;2.00;1.90;;;;;;;;;;5022356;28;20699;-53
2022/08/16 02:52:38;;;;;;;2.10;2.00;;;;;;;;;;5028314;28;20223;-53
2022/08/16 02:55:04;;;;;;;2.07;1.97;;;;;;;;;;5032120;28;20228;-53
2022/08/16 02:57:30;;;;;;;1.87;1.77;;;;;;;;;;5030721;28;20697;-53
2022/08/16 02:59:57;;;;;;;1.90;1.80;;;;;;;;;;5044205;28;20231;-54
2022/08/16 03:02:24;;;;;;;2.27;2.17;;;;;;;;;;5019904;28;20238;-53
2022/08/16 03:04:49;;;;;;;2.20;2.10;;;;;;;;;;5037627;28;20363;-53
2022/08/16 03:07:15;;;;;;;2.10;2.00;;;;;;;;;;5021803;28;20223;-54
2022/08/16 03:09:41;;;;;;;1.87;1.77;;;;;;;;;;5033443;28;20246;-54
2022/08/16 03:12:07;;;;;;;2.00;1.90;;;;;;;;;;5006650;28;20220;-54
2022/08/16 03:14:33;;;;;;;1.90;1.80;;;;;;;;;;5034878;28;20222;-54
2022/08/16 03:16:59;;;;;;;1.80;1.70;;;;;;;;;;5034184;28;20637;-54
2022/08/16 03:19:26;;;;;;;2.10;2.00;;;;;;;;;;5038077;28;20231;-54
2022/08/16 03:21:51;;;;;;;2.13;2.03;;;;;;;;;;5033210;28;20299;-54
2022/08/16 03:24:17;;;;;;;2.10;2.00;;;;;;;;;;5031585;28;20724;-54
2022/08/16 03:26:43;;;;;;;1.90;1.80;;;;;;;;;;5038435;28;20901;-54
2022/08/16 03:29:10;;;;;;;1.90;1.80;;;;;;;;;;5023512;28;20224;-53
2022/08/16 03:31:36;;;;;;;1.90;1.80;;;;;;;;;;5029580;28;20249;-53
2022/08/16 03:34:02;;;;;;;2.20;2.10;;;;;;;;;;5038438;28;20699;-53
2022/08/16 03:36:28;;;;;;;2.00;1.90;;;;;;;;;;5033268;28;20632;-54
2022/08/16 03:38:54;;;;;;;2.50;2.40;;;;;;;;;;5034124;28;20233;-53
2022/08/16 03:41:22;;;;;;;2.20;2.10;;;;;;;;;;5027997;28;20238;-53
2022/08/16 03:43:48;;;;;;;2.40;2.30;;;;;;;;;;5016672;28;20247;-54
2022/08/16 03:46:14;;;;;;;2.00;1.90;;;;;;;;;;5026945;28;20251;-53
2022/08/16 03:48:40;;;;;;;2.00;1.90;;;;;;;;;;5021610;28;20369;-53
2022/08/16 03:51:07;;;;;;;1.90;1.80;;;;;;;;;;5022449;28;20596;-54
2022/08/16 03:53:33;;;;;;;1.77;1.70;;;;;;;;;;5041901;28;20223;-54
2022/08/16 03:55:59;;;;;;;2.10;2.00;;;;;;;;;;5029655;28;20703;-54
2022/08/16 03:58:25;;;;;;;1.60;1.60;;;;;;;;;;5024355;28;20232;-54
2022/08/16 04:00:54;;;;;;;1.73;1.70;;;;;;;;;;5029633;28;20708;-54
2022/08/16 04:03:20;;;;;;;1.90;1.80;;;;;;;;;;5033712;28;20259;-54
2022/08/16 04:05:47;;;;;;;2.00;1.90;;;;;;;;;;5028410;28;20644;-54
2022/08/16 04:08:13;;;;;;;1.90;1.80;;;;;;;;;;5018178;28;20270;-55
2022/08/16 04:10:39;;;;;;;2.20;2.10;;;;;;;;;;5021268;28;20616;-54
2022/08/16 04:13:06;;;;;;;1.80;1.70;;;;;;;;;;5017364;28;20943;-54
2022/08/16 04:15:32;;;;;;;1.77;1.70;;;;;;;;;;5019240;28;20223;-54
2022/08/16 04:17:58;;;;;;;1.90;1.80;;;;;;;;;;5022416;28;20230;-54
2022/08/16 04:20:24;;;;;;;1.60;1.60;;;;;;;;;;5036645;28;20227;-54
2022/08/16 04:22:51;;;;;;;2.00;1.90;;;;;;;;;;5039548;28;20220;-53
2022/08/16 04:25:17;;;;;;;2.20;2.10;;;;;;;;;;5019039;28;20251;-53
2022/08/16 04:27:43;;;;;;;1.90;1.80;;;;;;;;;;5024339;28;20224;-54
2022/08/16 04:30:10;;;;;;;1.90;1.80;;;;;;;;;;5022899;28;20618;-53
2022/08/16 04:32:36;;;;;;;1.87;1.77;;;;;;;;;;5033535;28;20699;-55
2022/08/16 04:35:03;;;;;;;1.60;1.60;;;;;;;;;;5009204;28;21020;-54
2022/08/16 04:37:29;;;;;;;1.83;1.73;;;;;;;;;;5028973;28;20392;-53
2022/08/16 04:39:55;;;;;;;1.50;1.50;;;;;;;;;;5041678;28;20278;-53
2022/08/16 04:42:21;;;;;;;1.50;1.50;;;;;;;;;;5038543;28;20519;-54
2022/08/16 04:44:48;;;;;;;1.90;1.80;;;;;;;;;;5023270;28;20227;-54
2022/08/16 04:47:14;;;;;;;1.80;1.70;;;;;;;;;;5026143;28;20219;-53
2022/08/16 04:49:40;;;;;;;1.60;1.60;;;;;;;;;;5026290;28;20231;-54
2022/08/16 04:52:06;;;;;;;1.70;1.70;;;;;;;;;;5027970;28;20327;-54
2022/08/16 04:54:32;;;;;;;2.07;1.97;;;;;;;;;;5031082;28;20660;-54
2022/08/16 04:56:58;;;;;;;1.90;1.80;;;;;;;;;;5035724;28;20338;-53
2022/08/16 04:59:24;;;;;;;1.93;1.83;;;;;;;;;;5022551;28;20713;-54
2022/08/16 05:01:55;;;;;;;1.63;1.63;;;;;;;;;;5022429;28;20265;-54
2022/08/16 05:04:21;;;;;;;1.70;1.70;;;;;;;;;;5027253;28;20542;-54
2022/08/16 05:06:47;;;;;;;1.93;1.83;;;;;;;;;;5023243;28;21712;-54
2022/08/16 05:09:13;;;;;;;2.00;1.90;;;;;;;;;;5034061;28;20970;-54
2022/08/16 05:11:39;;;;;;;1.90;1.80;;;;;;;;;;5022840;28;20650;-54
2022/08/16 05:14:05;;;;;;;1.97;1.87;;;;;;;;;;5037692;28;20228;-54
2022/08/16 05:16:31;;;;;;;2.10;2.00;;;;;;;;;;5029563;28;20276;-55
2022/08/16 05:18:57;;;;;;;1.90;1.80;;;;;;;;;;5031911;28;20224;-54
2022/08/16 05:21:23;;;;;;;1.50;1.50;;;;;;;;;;5039608;28;20223;-54
2022/08/16 05:23:50;;;;;;;2.00;1.90;;;;;;;;;;5031159;28;20223;-54
2022/08/16 05:26:16;;;;;;;1.90;1.80;;;;;;;;;;5036211;28;20312;-54
2022/08/16 05:28:41;;;;;;;2.43;2.33;;;;;;;;;;5038496;28;20800;-55
2022/08/16 05:31:07;;;;;;;1.50;1.50;;;;;;;;;;5046126;28;20877;-56
2022/08/16 05:33:33;;;;;;;1.60;1.60;;;;;;;;;;5045596;28;20597;-54
2022/08/16 05:35:59;;;;;;;1.80;1.70;;;;;;;;;;5035011;28;20312;-54
2022/08/16 05:38:28;;;;;;;1.80;1.70;;;;;;;;;;5030463;28;20228;-54
2022/08/16 05:40:54;;;;;;;2.03;1.93;;;;;;;;;;5026855;28;20591;-55
2022/08/16 05:43:20;;;;;;;2.20;2.10;;;;;;;;;;5022985;28;20231;-54
2022/08/16 05:45:46;;;;;;;2.03;1.93;;;;;;;;;;5028749;28;20228;-55
2022/08/16 05:48:12;;;;;;;2.00;1.90;;;;;;;;;;5029765;28;20274;-55
2022/08/16 05:50:38;;;;;;;1.97;1.87;;;;;;;;;;5014591;28;20696;-55
2022/08/16 05:53:04;;;;;;;1.80;1.70;;;;;;;;;;5026813;28;20686;-54
2022/08/16 05:55:30;;;;;;;1.60;1.60;;;;;;;;;;5015373;28;20220;-54
2022/08/16 05:57:56;;;;;;;2.03;1.93;;;;;;;;;;5019041;28;20562;-54
2022/08/16 06:00:23;;;;;;;2.17;2.07;;;;;;;;;;5017847;28;20261;-55
2022/08/16 06:02:49;;;;;;;1.60;1.60;;;;;;;;;;5018907;28;20230;-54
2022/08/16 06:05:15;;;;;;;2.13;2.03;;;;;;;;;;5024215;28;20960;-54
2022/08/16 06:07:41;;;;;;;2.07;1.97;;;;;;;;;;5021415;28;20234;-55
2022/08/16 06:10:07;;;;;;;1.73;1.70;;;;;;;;;;5025553;28;20236;-55
2022/08/16 06:12:33;;;;;;;2.10;2.00;;;;;;;;;;5024245;28;20432;-55
2022/08/16 06:15:01;;;;;;;1.50;1.50;;;;;;;;;;5027033;28;20457;-55
2022/08/16 06:17:28;;;;;;;1.40;1.40;;;;;;;;;;5014770;28;20239;-54
2022/08/16 06:19:54;;;;;;;1.60;1.60;;;;;;;;;;5021622;28;20236;-54
2022/08/16 06:22:20;;;;;;;1.50;1.50;;;;;;;;;;5025588;28;20220;-54
2022/08/16 06:24:46;;;;;;;1.40;1.40;;;;;;;;;;5024283;28;20309;-55
2022/08/16 06:27:12;;;;;;;1.60;1.60;;;;;;;;;;5021492;28;20236;-55
2022/08/16 06:29:38;;;;;;;1.50;1.50;;;;;;;;;;5015319;28;20224;-54
2022/08/16 06:32:04;;;;;;;1.60;1.60;;;;;;;;;;5018386;28;20633;-54
2022/08/16 06:34:30;;;;;;;1.60;1.60;;;;;;;;;;5025383;28;20709;-54
2022/08/16 06:36:56;;;;;;;2.13;2.03;;;;;;;;;;5028666;28;20237;-54
2022/08/16 06:39:22;;;;;;;1.50;1.50;;;;;;;;;;5028751;28;20266;-54
2022/08/16 06:41:48;;;;;;;1.90;1.80;;;;;;;;;;5027128;28;20228;-55
2022/08/16 06:44:14;;;;;;;1.50;1.50;;;;;;;;;;5022424;28;21040;-54
2022/08/16 06:46:40;;;;;;;1.63;1.63;;;;;;;;;;5023013;28;20306;-55
2022/08/16 06:49:07;;;;;;;1.60;1.60;;;;;;;;;;5042166;28;20829;-54
2022/08/16 06:51:33;;;;;;;1.70;1.67;;;;;;;;;;5036730;28;20231;-55
2022/08/16 06:54:00;;;;;;;1.60;1.60;;;;;;;;;;5037517;28;20223;-54
2022/08/16 06:56:26;;;;;;;1.90;1.80;;;;;;;;;;5030597;28;20603;-54
2022/08/16 06:58:52;;;;;;;1.83;1.73;;;;;;;;;;5027410;28;20228;-55
2022/08/16 07:01:18;;;;;;;1.60;1.60;;;;;;;;;;5036650;28;20585;-54
2022/08/16 07:03:45;;;;;;;1.70;1.70;;;;;;;;;;5045012;28;20305;-54
2022/08/16 07:06:11;;;;;;;1.70;1.70;;;;;;;;;;5032071;28;20247;-55
2022/08/16 07:08:37;;;;;;;1.60;1.60;;;;;;;;;;5035222;28;20599;-55
2022/08/16 07:11:04;;;;;;;1.87;1.77;;;;;;;;;;5038847;28;20220;-54
2022/08/16 07:13:30;;;;;;;1.50;1.50;;;;;;;;;;5044453;28;20618;-54
2022/08/16 07:15:56;;;;;;;1.87;1.77;;;;;;;;;;5039382;28;20604;-54
2022/08/16 07:18:22;;;;;;;1.58;1.58;;;;;;;;;;5046839;28;20230;-54
2022/08/16 07:20:49;;;;;;;1.40;1.40;;;;;;;;;;5040636;28;20219;-55
2022/08/16 07:23:15;;;;;;;1.67;1.67;;;;;;;;;;5042213;28;20214;-55
2022/08/16 07:25:41;;;;;;;1.77;1.73;;;;;;;;;;5043759;28;21093;-54
2022/08/16 07:28:07;;;;;;;1.80;1.70;;;;;;;;;;5040460;28;20766;-55
2022/08/16 07:30:33;;;;;;;1.50;1.50;;;;;;;;;;5037810;28;20227;-54
2022/08/16 07:32:59;;;;;;;1.70;1.70;;;;;;;;;;5044827;28;20221;-55
2022/08/16 07:35:25;;;;;;;1.40;1.40;;;;;;;;;;5043152;28;20740;-55
2022/08/16 07:37:52;;;;;;;1.10;1.10;;;;;;;;;;5038101;28;20256;-54
2022/08/16 07:40:18;;;;;;;1.00;1.00;;;;;;;;;;5031154;28;20898;-54
2022/08/16 07:42:44;;;;;;;1.90;1.80;;;;;;;;;;5037178;28;20235;-55
2022/08/16 07:45:10;;;;;;;1.92;1.83;;;;;;;;;;5034082;28;20706;-55
2022/08/16 07:47:36;;;;;;;1.90;1.80;;;;;;;;;;5041655;28;20218;-54
2022/08/16 07:50:02;;;;;;;2.00;1.90;;;;;;;;;;5039737;28;20220;-54
2022/08/16 07:52:28;;;;;;;1.98;1.88;;;;;;;;;;5041120;28;20724;-54
2022/08/16 07:54:54;;;;;;;2.13;2.03;;;;;;;;;;5037629;28;20217;-55
2022/08/16 07:57:20;;;;;;;1.90;1.80;;;;;;;;;;5029768;28;20259;-55
2022/08/16 07:59:46;;;;;;;1.90;1.80;;;;;;;;;;5028943;28;20225;-55
2022/08/16 08:02:12;;;;;;;2.22;2.13;;;;;;;;;;5024320;28;20224;-54
2022/08/16 08:04:39;;;;;;;2.00;1.90;;;;;;;;;;5017739;28;20744;-54
2022/08/16 08:07:05;;;;;;;2.00;1.90;;;;;;;;;;5030626;28;20606;-56
2022/08/16 08:09:31;;;;;;;2.00;1.90;;;;;;;;;;5031575;28;20401;-55
2022/08/16 08:11:57;;;;;;;1.55;1.55;;;;;;;;;;5029638;28;20217;-54
2022/08/16 08:14:23;;;;;;;1.50;1.50;;;;;;;;;;5028723;28;20234;-56
2022/08/16 08:16:49;;;;;;;1.40;1.40;;;;;;;;;;5031082;28;20247;-55
2022/08/16 08:19:15;;;;;;;1.40;1.40;;;;;;;;;;5031659;28;20231;-56
2022/08/16 08:21:41;;;;;;;1.50;1.50;;;;;;;;;;5032587;28;20303;-54
2022/08/16 08:24:08;;;;;;;1.40;1.40;;;;;;;;;;5028351;28;20244;-55
2022/08/16 08:26:33;;;;;;;1.40;1.40;;;;;;;;;;5040676;28;20276;-56
2022/08/16 08:29:00;;;;;;;1.40;1.40;;;;;;;;;;5039595;28;20216;-54
2022/08/16 08:31:26;;;;;;;1.55;1.55;;;;;;;;;;5032743;28;20221;-54
2022/08/16 08:33:55;;;;;;;1.40;1.40;;;;;;;;;;5035838;28;20216;-54
2022/08/16 08:36:25;;;;;;;1.50;1.50;;;;;;;;;;5037527;28;20237;-55
2022/08/16 08:38:52;;;;;;;1.40;1.40;;;;;;;;;;5033462;28;20722;-55
2022/08/16 08:41:18;;;;;;;1.48;1.48;;;;;;;;;;5027364;28;20705;-55
2022/08/16 08:43:44;;;;;;;1.50;1.50;;;;;;;;;;5039077;28;20311;-55
2022/08/16 08:46:10;;;;;;;1.73;1.70;;;;;;;;;;5035915;28;20212;-55
2022/08/16 08:48:36;;;;;;;2.20;2.10;;;;;;;;;;5030313;28;20235;-54
2022/08/16 08:51:03;;;;;;;2.13;2.03;;;;;;;;;;5030002;28;20235;-55
2022/08/16 08:53:29;;;;;;;2.05;1.95;;;;;;;;;;5036366;28;20238;-55
2022/08/16 08:55:55;;;;;;;1.92;1.83;;;;;;;;;;5032535;28;20455;-55
2022/08/16 08:58:21;;;;;;;1.40;1.40;;;;;;;;;;5036230;28;20288;-55
2022/08/16 09:00:47;;;;;;;1.70;1.67;;;;;;;;;;5041755;28;20228;-55
2022/08/16 09:03:13;;;;;;;1.40;1.40;;;;;;;;;;5031498;28;20262;-55
2022/08/16 09:05:39;;;;;;;1.30;1.30;;;;;;;;;;5032202;28;20232;-55
2022/08/16 09:08:06;;;;;;;1.60;1.60;;;;;;;;;;5031613;28;20601;-54
2022/08/16 09:10:32;;;;;;;1.40;1.40;;;;;;;;;;5030772;28;20223;-55
2022/08/16 09:12:58;;;;;;;1.38;1.38;;;;;;;;;;5039002;28;20254;-55
2022/08/16 09:15:25;;;;;;;1.33;1.33;;;;;;;;;;5031783;28;20553;-55
2022/08/16 09:17:55;;;;;;;1.35;1.35;;;;;;;;;;5024387;28;20721;-55
2022/08/16 09:20:24;;;;;;;1.30;1.30;;;;;;;;;;5032739;28;21031;-55
2022/08/16 09:22:50;;;;;;;1.30;1.30;;;;;;;;;;5023649;28;20233;-55
2022/08/16 09:25:15;;;;;;;1.38;1.38;;;;;;;;;;5026927;28;20212;-56
2022/08/16 09:27:41;;;;;;;0.60;0.60;;;;;;;;;;5032802;28;20271;-55
2022/08/16 09:30:08;;;;;;;0.60;0.60;;;;;;;;;;5020223;28;20683;-55
2022/08/16 09:32:34;;;;;;;0.60;0.60;;;;;;;;;;5021246;28;20282;-55
2022/08/16 09:35:00;;;;;;;0.70;0.70;;;;;;;;;;5032908;28;20211;-55
2022/08/16 09:37:27;;;;;;;0.70;0.70;;;;;;;;;;5045086;28;20281;-55
2022/08/16 09:39:53;;;;;;;0.70;0.70;;;;;;;;;;5042949;28;20231;-55
2022/08/16 09:42:20;;;;;;;0.63;0.63;;;;;;;;;;5050254;28;20249;-55
2022/08/16 09:44:46;;;;;;;0.70;0.70;;;;;;;;;;5050888;28;20301;-55
2022/08/16 09:47:12;;;;;;;0.65;0.65;;;;;;;;;;5054141;28;20644;-55
2022/08/16 09:49:39;;;;;;;1.58;1.58;;;;;;;;;;5044437;28;20995;-55
2022/08/16 09:52:04;;;;;;;1.20;1.20;;;;;;;;;;5039408;28;20311;-55
2022/08/16 09:54:30;;;;;;;1.27;1.27;;;;;;;;;;5047881;28;20227;-55
2022/08/16 09:56:56;;;;;;;1.30;1.30;;;;;;;;;;5047194;28;20211;-55
2022/08/16 09:59:23;;;;;;;1.10;1.10;;;;;;;;;;5049254;28;20636;-55
2022/08/16 10:01:49;;;;;;;1.40;1.40;;;;;;;;;;5035994;28;20693;-56
2022/08/16 10:04:15;;;;;;;1.40;1.40;;;;;;;;;;5049627;28;20230;-55
2022/08/16 10:06:44;;;;;;;1.40;1.40;;;;;;;;;;5043517;28;20224;-56
2022/08/16 10:09:10;;;;;;;1.35;1.35;;;;;;;;;;5047551;28;20695;-56
2022/08/16 10:14:21;;;;;;;1.23;1.23;;;;;;;;;;5043349;28;20238;-55
2022/08/16 10:16:47;;;;;;;1.30;1.30;;;;;;;;;;5040053;28;20216;-56
2022/08/16 10:19:14;;;;;;;1.20;1.20;;;;;;;;;;5049693;28;20231;-55
2022/08/16 10:21:40;;;;;;;1.20;1.20;;;;;;;;;;5038428;28;20306;-55
2022/08/16 10:24:06;;;;;;;1.17;1.17;;;;;;;;;;5044214;28;20301;-55
2022/08/16 10:26:32;;;;;;;1.10;1.10;;;;;;;;;;5052204;28;20233;-56
2022/08/16 10:28:58;;;;;;;1.30;1.30;;;;;;;;;;5053844;28;20226;-55
2022/08/16 10:31:25;;;;;;;1.20;1.20;;;;;;;;;;5043686;28;20253;-56
2022/08/16 10:33:51;;;;;;;1.15;1.15;;;;;;;;;;5048185;28;20218;-56
2022/08/16 10:36:17;;;;;;;1.20;1.20;;;;;;;;;;5039749;28;20265;-55
2022/08/16 10:38:43;;;;;;;1.13;1.13;;;;;;;;;;5024022;28;20220;-55
2022/08/16 10:41:09;;;;;;;1.10;1.10;;;;;;;;;;5040476;28;20274;-55
2022/08/16 10:43:35;;;;;;;1.10;1.10;;;;;;;;;;5038688;28;20227;-55
2022/08/16 10:46:02;;;;;;;1.10;1.10;;;;;;;;;;5042935;28;20220;-55
2022/08/16 10:48:28;;;;;;;1.00;1.00;;;;;;;;;;5041470;28;20232;-56
2022/08/16 10:50:57;;;;;;;1.08;1.08;;;;;;;;;;5034787;28;20229;-56
2022/08/16 10:53:23;;;;;;;1.00;1.00;;;;;;;;;;5031965;28;20226;-55
2022/08/16 10:55:49;;;;;;;1.10;1.10;;;;;;;;;;5030354;28;20207;-56
2022/08/16 10:58:15;;;;;;;1.00;1.00;;;;;;;;;;5045164;28;20278;-55
2022/08/16 11:00:41;;;;;;;1.10;1.10;;;;;;;;;;5047451;28;20246;-55
2022/08/16 11:03:08;;;;;;;1.10;1.10;;;;;;;;;;5015281;28;20701;-55
2022/08/16 11:05:34;;;;;;;0.90;0.90;;;;;;;;;;5046711;28;20558;-54
2022/08/16 11:08:01;;;;;;;0.90;0.90;;;;;;;;;;5043738;28;20255;-55
2022/08/16 11:10:31;;;;;;;0.90;0.90;;;;;;;;;;5038224;28;20219;-55
2022/08/16 11:12:57;;;;;;;0.90;0.90;;;;;;;;;;5030149;28;20222;-56
2022/08/16 11:15:23;;;;;;;0.90;0.90;;;;;;;;;;5027473;28;20235;-55
2022/08/16 11:17:50;;;;;;;1.00;1.00;;;;;;;;;;5035123;28;20747;-55
2022/08/16 11:20:16;;;;;;;1.05;1.05;;;;;;;;;;5029227;28;20233;-55
2022/08/16 11:22:42;;;;;;;0.90;0.90;;;;;;;;;;5028880;28;20227;-56
2022/08/16 11:25:09;;;;;;;0.90;0.90;;;;;;;;;;5033629;28;20227;-55
2022/08/16 11:27:35;;;;;;;1.00;1.00;;;;;;;;;;5027406;28;20229;-55
2022/08/16 11:30:01;;;;;;;1.00;1.00;;;;;;;;;;5036858;28;20259;-55
2022/08/16 11:32:27;;;;;;;1.08;1.08;;;;;;;;;;5021448;28;20231;-55
2022/08/16 11:34:55;;;;;;;0.98;0.98;;;;;;;;;;5032015;28;20246;-56
2022/08/16 11:37:21;;;;;;;1.05;1.05;;;;;;;;;;5054433;28;20235;-55
2022/08/16 11:39:47;;;;;;;0.98;0.98;;;;;;;;;;5042703;28;20602;-56
2022/08/16 11:42:13;;;;;;;1.00;1.00;;;;;;;;;;5041109;28;20310;-55
2022/08/16 11:44:39;;;;;;;1.00;1.00;;;;;;;;;;5032895;28;20689;-56
2022/08/16 11:47:05;;;;;;;1.00;1.00;;;;;;;;;;5024975;28;20305;-55
2022/08/16 11:49:31;;;;;;;1.00;1.00;;;;;;;;;;5031540;28;20219;-56
2022/08/16 11:51:57;;;;;;;1.02;1.02;;;;;;;;;;5037265;28;20219;-57
2022/08/16 11:54:23;;;;;;;0.80;0.80;;;;;;;;;;5027666;28;20223;-57
2022/08/16 11:56:52;;;;;;;0.80;0.80;;;;;;;;;;5034805;28;20216;-57
2022/08/16 11:59:18;;;;;;;0.85;0.85;;;;;;;;;;5030914;28;20859;-56
2022/08/16 12:01:44;;;;;;;0.90;0.90;;;;;;;;;;5041446;28;20222;-56
2022/08/16 12:04:10;;;;;;;0.80;0.80;;;;;;;;;;5027542;28;20818;-56
2022/08/16 12:06:36;;;;;;;0.80;0.80;;;;;;;;;;5025896;28;20231;-56
2022/08/16 12:09:03;;;;;;;0.80;0.80;;;;;;;;;;5037680;28;20221;-56
2022/08/16 12:11:29;;;;;;;0.80;0.80;;;;;;;;;;5027471;28;21420;-56
2022/08/16 12:13:55;;;;;;;0.82;0.82;;;;;;;;;;5038326;28;20215;-56
2022/08/16 12:16:21;;;;;;;0.80;0.80;;;;;;;;;;5025921;28;20242;-57
2022/08/16 12:18:48;;;;;;;0.73;0.73;;;;;;;;;;5031439;28;20212;-57
2022/08/16 12:21:14;;;;;;;0.77;0.77;;;;;;;;;;5045092;28;20423;-56
2022/08/16 12:23:40;;;;;;;0.80;0.80;;;;;;;;;;5023574;28;20212;-56
2022/08/16 12:26:06;;;;;;;0.60;0.60;;;;;;;;;;5038917;28;20226;-56
2022/08/16 12:28:33;;;;;;;0.60;0.60;;;;;;;;;;5047416;28;20254;-56
2022/08/16 12:30:59;;;;;;;0.70;0.70;;;;;;;;;;5037142;28;20220;-56
2022/08/16 12:33:25;;;;;;;0.70;0.70;;;;;;;;;;5037408;28;20274;-56
2022/08/16 12:35:51;;;;;;;0.88;0.88;;;;;;;;;;5006455;28;20248;-56
2022/08/16 12:38:17;;;;;;;0.95;0.95;;;;;;;;;;5022167;28;20223;-57
2022/08/16 12:40:43;;;;;;;0.90;0.90;;;;;;;;;;5014235;28;20227;-57
2022/08/16 12:43:10;;;;;;;0.80;0.80;;;;;;;;;;5023222;28;20268;-56
2022/08/16 12:45:37;;;;;;;0.82;0.82;;;;;;;;;;5030455;28;20223;-56
2022/08/16 12:50:48;;;;;;;0.73;0.73;;;;;;;;;;5023605;28;21332;-56
2022/08/16 12:53:15;;;;;;;0.70;0.70;;;;;;;;;;5024121;28;20212;-57
2022/08/16 12:55:41;;;;;;;0.80;0.80;;;;;;;;;;5014232;28;20235;-56
2022/08/16 12:58:07;;;;;;;0.60;0.60;;;;;;;;;;5031218;28;20219;-56
2022/08/16 13:00:33;;;;;;;0.70;0.70;;;;;;;;;;5026350;28;20220;-57
2022/08/16 13:02:59;;;;;;;0.60;0.60;;;;;;;;;;5040202;28;20871;-56
2022/08/16 13:05:25;;;;;;;0.70;0.70;;;;;;;;;;5031208;28;20696;-56
2022/08/16 13:07:51;;;;;;;0.70;0.70;;;;;;;;;;5044543;28;20598;-56
2022/08/16 13:10:17;;;;;;;0.60;0.60;;;;;;;;;;5036453;28;20220;-57
2022/08/16 13:12:44;;;;;;;0.70;0.70;;;;;;;;;;5031898;28;20276;-57
2022/08/16 13:15:11;;;;;;;0.60;0.60;;;;;;;;;;5024692;28;20281;-56
2022/08/16 13:17:37;;;;;;;0.60;0.60;;;;;;;;;;5029925;28;20311;-56
2022/08/16 13:20:04;;;;;;;0.60;0.60;;;;;;;;;;5036112;28;20239;-55
2022/08/16 13:22:30;;;;;;;0.85;0.85;;;;;;;;;;5030042;28;20216;-57
2022/08/16 13:24:56;;;;;;;0.90;0.90;;;;;;;;;;5033660;28;22439;-56
2022/08/16 13:27:22;;;;;;;0.80;0.80;;;;;;;;;;5038997;28;20219;-56
2022/08/16 13:29:48;;;;;;;0.93;0.93;;;;;;;;;;5040265;28;20226;-56
2022/08/16 13:32:14;;;;;;;0.90;0.90;;;;;;;;;;5025754;28;20225;-56
2022/08/16 13:34:40;;;;;;;0.93;0.93;;;;;;;;;;5014805;28;20307;-57
2022/08/16 13:37:06;;;;;;;0.95;0.95;;;;;;;;;;5033080;28;20251;-56
2022/08/16 13:39:33;;;;;;;0.90;0.90;;;;;;;;;;5028550;28;20232;-56
2022/08/16 13:42:03;;;;;;;0.80;0.80;;;;;;;;;;5041971;28;20223;-56
2022/08/16 13:44:29;;;;;;;0.60;0.60;;;;;;;;;;5037243;28;20233;-56
2022/08/16 13:46:56;;;;;;;0.90;0.90;;;;;;;;;;5041528;28;20223;-56
2022/08/16 13:49:22;;;;;;;0.88;0.88;;;;;;;;;;5036306;28;20225;-55
2022/08/16 13:51:48;;;;;;;0.90;0.90;;;;;;;;;;5025831;28;20692;-56
2022/08/16 13:54:14;;;;;;;0.93;0.93;;;;;;;;;;5032511;28;20216;-56
2022/08/16 13:56:40;;;;;;;0.90;0.90;;;;;;;;;;5023310;28;21145;-56
2022/08/16 13:59:07;;;;;;;0.80;0.80;;;;;;;;;;5036998;28;20223;-57
2022/08/16 14:01:33;;;;;;;0.85;0.85;;;;;;;;;;5029671;28;20216;-56
2022/08/16 14:04:00;;;;;;;0.85;0.85;;;;;;;;;;5026964;28;20226;-57
2022/08/16 14:06:27;;;;;;;0.90;0.90;;;;;;;;;;5024804;28;20228;-56
2022/08/16 14:08:52;;;;;;;0.80;0.80;;;;;;;;;;5045481;28;20358;-56
2022/08/16 14:11:18;;;;;;;0.77;0.77;;;;;;;;;;5033748;28;20221;-56
2022/08/16 14:13:44;;;;;;;0.60;0.60;;;;;;;;;;5026854;28;20227;-56
2022/08/16 14:16:12;;;;;;;0.70;0.70;;;;;;;;;;5023155;28;21036;-56
2022/08/16 14:18:38;;;;;;;0.60;0.60;;;;;;;;;;5030981;28;20228;-56
2022/08/16 14:21:04;;;;;;;0.70;0.70;;;;;;;;;;5026463;28;20229;-57
2022/08/16 14:23:30;;;;;;;0.70;0.70;;;;;;;;;;5039408;28;20211;-56
2022/08/16 14:25:56;;;;;;;0.70;0.70;;;;;;;;;;5027796;28;20310;-56
2022/08/16 14:28:22;;;;;;;0.70;0.70;;;;;;;;;;5026846;28;20226;-56
2022/08/16 14:30:48;;;;;;;0.70;0.70;;;;;;;;;;5031335;28;20272;-56
2022/08/16 14:33:14;;;;;;;0.80;0.80;;;;;;;;;;5032389;28;20623;-56
2022/08/16 14:35:40;;;;;;;0.82;0.82;;;;;;;;;;5035417;28;20282;-57
2022/08/16 14:38:06;;;;;;;0.80;0.80;;;;;;;;;;5035336;28;20223;-57
2022/08/16 14:40:32;;;;;;;0.70;0.70;;;;;;;;;;5032115;28;20605;-56
2022/08/16 14:42:58;;;;;;;0.65;0.65;;;;;;;;;;5032614;28;20219;-56